sensor_id;sensor_type;location;lat;lon;timestamp;P1;durP1;ratioP1;P2;durP2;ratioP2
25079;SDS011;13071;48.868;9.996;2024-01-11T00:00:58;59.97;;;20.73;;
25079;SDS011;13071;48.868;9.996;2024-01-11T00:03:25;72.67;;;24.27;;
25079;SDS011;13071;48.868;9.996;2024-01-11T00:05:51;63.00;;;24.40;;
25079;SDS011;13071;48.868;9.996;2024-01-11T00:08:17;70.70;;;25.10;;
25079;SDS011;13071;48.868;9.996;2024-01-11T00:10:44;73.17;;;25.13;;
25079;SDS011;13071;48.868;9.996;2024-01-11T00:13:10;66.17;;;24.17;;
25079;SDS011;13071;48.868;9.996;2024-01-11T00:15:38;70.60;;;23.80;;
25079;SDS011;13071;48.868;9.996;2024-01-11T00:18:05;57.83;;;22.37;;
25079;SDS011;13071;48.868;9.996;2024-01-11T00:20:32;66.20;;;22.70;;
25079;SDS011;13071;48.868;9.996;2024-01-11T00:22:58;64.27;;;23.03;;
25079;SDS011;13071;48.868;9.996;2024-01-11T00:25:25;62.13;;;22.63;;
25079;SDS011;13071;48.868;9.996;2024-01-11T00:27:51;62.03;;;22.30;;
25079;SDS011;13071;48.868;9.996;2024-01-11T00:30:17;62.93;;;23.63;;
25079;SDS011;13071;48.868;9.996;2024-01-11T00:32:44;64.00;;;23.83;;
25079;SDS011;13071;48.868;9.996;2024-01-11T00:35:11;58.00;;;22.50;;
25079;SDS011;13071;48.868;9.996;2024-01-11T00:37:38;62.97;;;22.47;;
25079;SDS011;13071;48.868;9.996;2024-01-11T00:40:05;64.77;;;20.93;;
25079;SDS011;13071;48.868;9.996;2024-01-11T00:42:32;61.77;;;22.00;;
25079;SDS011;13071;48.868;9.996;2024-01-11T00:44:59;58.50;;;21.87;;
25079;SDS011;13071;48.868;9.996;2024-01-11T00:47:26;61.97;;;21.60;;
25079;SDS011;13071;48.868;9.996;2024-01-11T00:49:52;53.27;;;21.50;;
25079;SDS011;13071;48.868;9.996;2024-01-11T00:52:20;51.83;;;19.10;;
25079;SDS011;13071;48.868;9.996;2024-01-11T00:54:46;54.17;;;20.63;;
25079;SDS011;13071;48.868;9.996;2024-01-11T00:57:13;58.23;;;21.37;;
25079;SDS011;13071;48.868;9.996;2024-01-11T00:59:39;61.43;;;21.03;;
25079;SDS011;13071;48.868;9.996;2024-01-11T01:02:06;58.93;;;22.33;;
25079;SDS011;13071;48.868;9.996;2024-01-11T01:04:32;61.50;;;21.67;;
25079;SDS011;13071;48.868;9.996;2024-01-11T01:06:58;61.03;;;21.60;;
25079;SDS011;13071;48.868;9.996;2024-01-11T01:09:26;60.27;;;22.30;;
25079;SDS011;13071;48.868;9.996;2024-01-11T01:11:52;58.97;;;22.33;;
25079;SDS011;13071;48.868;9.996;2024-01-11T01:14:19;62.80;;;21.13;;
25079;SDS011;13071;48.868;9.996;2024-01-11T01:16:45;58.53;;;21.60;;
25079;SDS011;13071;48.868;9.996;2024-01-11T01:19:11;61.40;;;23.20;;
25079;SDS011;13071;48.868;9.996;2024-01-11T01:21:38;65.50;;;22.10;;
25079;SDS011;13071;48.868;9.996;2024-01-11T01:24:04;60.17;;;22.90;;
25079;SDS011;13071;48.868;9.996;2024-01-11T01:26:32;57.03;;;22.10;;
25079;SDS011;13071;48.868;9.996;2024-01-11T01:28:58;65.47;;;22.57;;
25079;SDS011;13071;48.868;9.996;2024-01-11T01:31:25;64.67;;;22.80;;
25079;SDS011;13071;48.868;9.996;2024-01-11T01:33:51;63.40;;;22.80;;
25079;SDS011;13071;48.868;9.996;2024-01-11T01:36:17;57.00;;;21.77;;
25079;SDS011;13071;48.868;9.996;2024-01-11T01:38:44;69.23;;;23.83;;
25079;SDS011;13071;48.868;9.996;2024-01-11T01:41:10;58.40;;;21.83;;
25079;SDS011;13071;48.868;9.996;2024-01-11T01:43:38;60.33;;;22.63;;
25079;SDS011;13071;48.868;9.996;2024-01-11T01:46:04;63.43;;;22.87;;
25079;SDS011;13071;48.868;9.996;2024-01-11T01:48:31;60.73;;;22.60;;
25079;SDS011;13071;48.868;9.996;2024-01-11T01:50:58;67.30;;;25.17;;
25079;SDS011;13071;48.868;9.996;2024-01-11T01:53:24;64.23;;;23.30;;
25079;SDS011;13071;48.868;9.996;2024-01-11T01:55:53;66.60;;;23.13;;
25079;SDS011;13071;48.868;9.996;2024-01-11T01:58:19;64.60;;;23.90;;
25079;SDS011;13071;48.868;9.996;2024-01-11T02:00:48;68.93;;;23.70;;
25079;SDS011;13071;48.868;9.996;2024-01-11T02:03:14;66.20;;;22.87;;
25079;SDS011;13071;48.868;9.996;2024-01-11T02:05:42;63.53;;;23.37;;
25079;SDS011;13071;48.868;9.996;2024-01-11T02:08:08;63.00;;;23.33;;
25079;SDS011;13071;48.868;9.996;2024-01-11T02:10:38;69.80;;;22.83;;
25079;SDS011;13071;48.868;9.996;2024-01-11T02:13:04;61.57;;;23.60;;
25079;SDS011;13071;48.868;9.996;2024-01-11T02:15:31;56.73;;;21.10;;
25079;SDS011;13071;48.868;9.996;2024-01-11T02:17:59;53.97;;;21.83;;
25079;SDS011;13071;48.868;9.996;2024-01-11T02:20:25;60.27;;;23.27;;
25079;SDS011;13071;48.868;9.996;2024-01-11T02:22:53;70.90;;;23.00;;
25079;SDS011;13071;48.868;9.996;2024-01-11T02:25:23;58.83;;;23.20;;
25079;SDS011;13071;48.868;9.996;2024-01-11T02:27:50;65.13;;;24.07;;
25079;SDS011;13071;48.868;9.996;2024-01-11T02:30:16;63.33;;;23.83;;
25079;SDS011;13071;48.868;9.996;2024-01-11T02:32:43;68.33;;;23.33;;
25079;SDS011;13071;48.868;9.996;2024-01-11T02:35:11;60.30;;;23.60;;
25079;SDS011;13071;48.868;9.996;2024-01-11T02:37:38;65.47;;;23.87;;
25079;SDS011;13071;48.868;9.996;2024-01-11T02:40:05;66.80;;;23.40;;
25079;SDS011;13071;48.868;9.996;2024-01-11T02:42:33;61.53;;;23.40;;
25079;SDS011;13071;48.868;9.996;2024-01-11T02:45:00;67.03;;;23.47;;
25079;SDS011;13071;48.868;9.996;2024-01-11T02:47:26;60.67;;;22.47;;
25079;SDS011;13071;48.868;9.996;2024-01-11T02:49:52;51.93;;;21.77;;
25079;SDS011;13071;48.868;9.996;2024-01-11T02:52:19;61.40;;;22.77;;
25079;SDS011;13071;48.868;9.996;2024-01-11T02:54:45;65.73;;;22.73;;
25079;SDS011;13071;48.868;9.996;2024-01-11T02:57:12;63.37;;;23.67;;
25079;SDS011;13071;48.868;9.996;2024-01-11T02:59:39;64.30;;;23.70;;
25079;SDS011;13071;48.868;9.996;2024-01-11T03:02:06;60.17;;;22.53;;
25079;SDS011;13071;48.868;9.996;2024-01-11T03:04:32;60.40;;;22.37;;
25079;SDS011;13071;48.868;9.996;2024-01-11T03:06:58;61.50;;;23.27;;
25079;SDS011;13071;48.868;9.996;2024-01-11T03:09:24;61.93;;;22.43;;
25079;SDS011;13071;48.868;9.996;2024-01-11T03:11:50;60.00;;;22.00;;
25079;SDS011;13071;48.868;9.996;2024-01-11T03:14:17;61.50;;;23.10;;
25079;SDS011;13071;48.868;9.996;2024-01-11T03:16:44;59.63;;;23.00;;
25079;SDS011;13071;48.868;9.996;2024-01-11T03:19:11;57.20;;;22.10;;
25079;SDS011;13071;48.868;9.996;2024-01-11T03:21:40;62.33;;;22.97;;
25079;SDS011;13071;48.868;9.996;2024-01-11T03:24:06;61.50;;;22.97;;
25079;SDS011;13071;48.868;9.996;2024-01-11T03:26:33;64.53;;;24.77;;
25079;SDS011;13071;48.868;9.996;2024-01-11T03:28:59;58.37;;;22.33;;
25079;SDS011;13071;48.868;9.996;2024-01-11T03:31:25;61.53;;;22.90;;
25079;SDS011;13071;48.868;9.996;2024-01-11T03:33:53;52.57;;;21.53;;
25079;SDS011;13071;48.868;9.996;2024-01-11T03:36:22;68.23;;;24.30;;
25079;SDS011;13071;48.868;9.996;2024-01-11T03:38:49;68.67;;;24.70;;
25079;SDS011;13071;48.868;9.996;2024-01-11T03:41:15;62.33;;;23.23;;
25079;SDS011;13071;48.868;9.996;2024-01-11T03:43:42;61.83;;;22.83;;
25079;SDS011;13071;48.868;9.996;2024-01-11T03:46:08;59.67;;;22.57;;
25079;SDS011;13071;48.868;9.996;2024-01-11T03:48:34;65.60;;;23.53;;
25079;SDS011;13071;48.868;9.996;2024-01-11T03:51:03;58.23;;;22.00;;
25079;SDS011;13071;48.868;9.996;2024-01-11T03:53:29;57.77;;;22.87;;
25079;SDS011;13071;48.868;9.996;2024-01-11T03:55:56;73.03;;;25.27;;
25079;SDS011;13071;48.868;9.996;2024-01-11T03:58:22;69.37;;;24.93;;
25079;SDS011;13071;48.868;9.996;2024-01-11T04:00:48;61.77;;;23.60;;
25079;SDS011;13071;48.868;9.996;2024-01-11T04:03:15;68.53;;;23.83;;
25079;SDS011;13071;48.868;9.996;2024-01-11T04:05:41;63.53;;;24.23;;
25079;SDS011;13071;48.868;9.996;2024-01-11T04:08:09;64.43;;;23.33;;
25079;SDS011;13071;48.868;9.996;2024-01-11T04:10:35;65.63;;;23.50;;
25079;SDS011;13071;48.868;9.996;2024-01-11T04:13:02;63.53;;;22.97;;
25079;SDS011;13071;48.868;9.996;2024-01-11T04:15:28;61.50;;;23.70;;
25079;SDS011;13071;48.868;9.996;2024-01-11T04:17:54;63.23;;;23.93;;
25079;SDS011;13071;48.868;9.996;2024-01-11T04:20:21;61.63;;;24.80;;
25079;SDS011;13071;48.868;9.996;2024-01-11T04:22:49;67.10;;;23.40;;
25079;SDS011;13071;48.868;9.996;2024-01-11T04:25:17;67.83;;;25.03;;
25079;SDS011;13071;48.868;9.996;2024-01-11T04:27:43;59.47;;;23.23;;
25079;SDS011;13071;48.868;9.996;2024-01-11T04:30:09;61.80;;;22.80;;
25079;SDS011;13071;48.868;9.996;2024-01-11T04:32:36;71.03;;;25.67;;
25079;SDS011;13071;48.868;9.996;2024-01-11T04:35:02;63.77;;;23.83;;
25079;SDS011;13071;48.868;9.996;2024-01-11T04:37:29;60.10;;;23.17;;
25079;SDS011;13071;48.868;9.996;2024-01-11T04:39:56;64.47;;;23.90;;
25079;SDS011;13071;48.868;9.996;2024-01-11T04:42:26;58.27;;;22.83;;
25079;SDS011;13071;48.868;9.996;2024-01-11T04:44:52;63.97;;;23.13;;
25079;SDS011;13071;48.868;9.996;2024-01-11T04:47:19;61.03;;;22.60;;
25079;SDS011;13071;48.868;9.996;2024-01-11T04:49:45;62.93;;;24.00;;
25079;SDS011;13071;48.868;9.996;2024-01-11T04:52:11;64.97;;;23.30;;
25079;SDS011;13071;48.868;9.996;2024-01-11T04:54:38;71.77;;;23.83;;
25079;SDS011;13071;48.868;9.996;2024-01-11T04:57:04;58.47;;;22.47;;
25079;SDS011;13071;48.868;9.996;2024-01-11T04:59:32;61.50;;;23.23;;
25079;SDS011;13071;48.868;9.996;2024-01-11T05:01:58;62.93;;;22.63;;
25079;SDS011;13071;48.868;9.996;2024-01-11T05:04:24;70.63;;;23.40;;
25079;SDS011;13071;48.868;9.996;2024-01-11T05:06:51;70.60;;;23.23;;
25079;SDS011;13071;48.868;9.996;2024-01-11T05:09:17;69.10;;;25.17;;
25079;SDS011;13071;48.868;9.996;2024-01-11T05:11:44;62.53;;;22.70;;
25079;SDS011;13071;48.868;9.996;2024-01-11T05:14:10;63.53;;;23.63;;
25079;SDS011;13071;48.868;9.996;2024-01-11T05:16:37;70.17;;;24.03;;
25079;SDS011;13071;48.868;9.996;2024-01-11T05:19:04;56.83;;;22.33;;
25079;SDS011;13071;48.868;9.996;2024-01-11T05:21:30;63.10;;;23.73;;
25079;SDS011;13071;48.868;9.996;2024-01-11T05:23:57;71.70;;;21.60;;
25079;SDS011;13071;48.868;9.996;2024-01-11T05:26:23;60.47;;;22.57;;
25079;SDS011;13071;48.868;9.996;2024-01-11T05:28:49;67.53;;;23.47;;
25079;SDS011;13071;48.868;9.996;2024-01-11T05:31:16;66.67;;;23.27;;
25079;SDS011;13071;48.868;9.996;2024-01-11T05:33:43;65.27;;;24.30;;
25079;SDS011;13071;48.868;9.996;2024-01-11T05:36:10;65.60;;;23.00;;
25079;SDS011;13071;48.868;9.996;2024-01-11T05:38:38;70.07;;;24.10;;
25079;SDS011;13071;48.868;9.996;2024-01-11T05:41:04;62.67;;;23.17;;
25079;SDS011;13071;48.868;9.996;2024-01-11T05:43:30;65.83;;;23.07;;
25079;SDS011;13071;48.868;9.996;2024-01-11T05:45:57;64.73;;;24.40;;
25079;SDS011;13071;48.868;9.996;2024-01-11T05:48:23;62.93;;;24.90;;
25079;SDS011;13071;48.868;9.996;2024-01-11T05:50:51;66.93;;;24.27;;
25079;SDS011;13071;48.868;9.996;2024-01-11T05:53:17;60.00;;;21.93;;
25079;SDS011;13071;48.868;9.996;2024-01-11T05:55:45;65.00;;;23.83;;
25079;SDS011;13071;48.868;9.996;2024-01-11T05:58:12;59.97;;;22.53;;
25079;SDS011;13071;48.868;9.996;2024-01-11T06:00:38;59.57;;;23.10;;
25079;SDS011;13071;48.868;9.996;2024-01-11T06:03:05;59.23;;;20.93;;
25079;SDS011;13071;48.868;9.996;2024-01-11T06:05:31;66.50;;;23.70;;
25079;SDS011;13071;48.868;9.996;2024-01-11T06:07:59;62.07;;;22.60;;
25079;SDS011;13071;48.868;9.996;2024-01-11T06:10:26;58.53;;;22.33;;
25079;SDS011;13071;48.868;9.996;2024-01-11T06:12:52;67.10;;;23.90;;
25079;SDS011;13071;48.868;9.996;2024-01-11T06:15:19;62.17;;;22.47;;
25079;SDS011;13071;48.868;9.996;2024-01-11T06:17:45;62.67;;;22.07;;
25079;SDS011;13071;48.868;9.996;2024-01-11T06:20:12;63.90;;;22.97;;
25079;SDS011;13071;48.868;9.996;2024-01-11T06:22:38;66.20;;;22.93;;
25079;SDS011;13071;48.868;9.996;2024-01-11T06:25:06;61.77;;;22.03;;
25079;SDS011;13071;48.868;9.996;2024-01-11T06:27:33;65.50;;;23.00;;
25079;SDS011;13071;48.868;9.996;2024-01-11T06:29:59;66.60;;;22.37;;
25079;SDS011;13071;48.868;9.996;2024-01-11T06:32:25;57.63;;;21.43;;
25079;SDS011;13071;48.868;9.996;2024-01-11T06:34:52;61.77;;;22.27;;
25079;SDS011;13071;48.868;9.996;2024-01-11T06:37:18;61.47;;;21.70;;
25079;SDS011;13071;48.868;9.996;2024-01-11T06:39:44;66.47;;;23.60;;
25079;SDS011;13071;48.868;9.996;2024-01-11T06:42:12;67.10;;;23.50;;
25079;SDS011;13071;48.868;9.996;2024-01-11T06:44:39;59.73;;;22.77;;
25079;SDS011;13071;48.868;9.996;2024-01-11T06:47:05;64.60;;;23.50;;
25079;SDS011;13071;48.868;9.996;2024-01-11T06:49:32;58.00;;;23.63;;
25079;SDS011;13071;48.868;9.996;2024-01-11T06:51:58;63.13;;;23.43;;
25079;SDS011;13071;48.868;9.996;2024-01-11T06:54:25;62.70;;;24.47;;
25079;SDS011;13071;48.868;9.996;2024-01-11T06:56:51;62.80;;;24.03;;
25079;SDS011;13071;48.868;9.996;2024-01-11T06:59:19;63.30;;;23.43;;
25079;SDS011;13071;48.868;9.996;2024-01-11T07:01:45;60.30;;;23.33;;
25079;SDS011;13071;48.868;9.996;2024-01-11T07:04:12;63.70;;;23.40;;
25079;SDS011;13071;48.868;9.996;2024-01-11T07:06:38;65.20;;;22.60;;
25079;SDS011;13071;48.868;9.996;2024-01-11T07:09:04;64.43;;;22.80;;
25079;SDS011;13071;48.868;9.996;2024-01-11T07:11:31;61.20;;;23.30;;
25079;SDS011;13071;48.868;9.996;2024-01-11T07:13:58;61.57;;;23.53;;
25079;SDS011;13071;48.868;9.996;2024-01-11T07:16:26;70.93;;;25.50;;
25079;SDS011;13071;48.868;9.996;2024-01-11T07:18:52;60.87;;;22.67;;
25079;SDS011;13071;48.868;9.996;2024-01-11T07:21:20;66.57;;;24.07;;
25079;SDS011;13071;48.868;9.996;2024-01-11T07:23:48;61.13;;;22.87;;
25079;SDS011;13071;48.868;9.996;2024-01-11T07:26:14;61.27;;;23.00;;
25079;SDS011;13071;48.868;9.996;2024-01-11T07:28:40;58.40;;;23.20;;
25079;SDS011;13071;48.868;9.996;2024-01-11T07:31:07;55.63;;;21.57;;
25079;SDS011;13071;48.868;9.996;2024-01-11T07:33:34;61.97;;;23.27;;
25079;SDS011;13071;48.868;9.996;2024-01-11T07:36:01;63.17;;;23.00;;
25079;SDS011;13071;48.868;9.996;2024-01-11T07:38:28;64.47;;;23.77;;
25079;SDS011;13071;48.868;9.996;2024-01-11T07:40:54;65.93;;;22.83;;
25079;SDS011;13071;48.868;9.996;2024-01-11T07:43:20;68.97;;;23.13;;
25079;SDS011;13071;48.868;9.996;2024-01-11T07:45:47;57.73;;;23.00;;
25079;SDS011;13071;48.868;9.996;2024-01-11T07:48:13;67.00;;;23.37;;
25079;SDS011;13071;48.868;9.996;2024-01-11T07:50:41;60.47;;;23.93;;
25079;SDS011;13071;48.868;9.996;2024-01-11T07:53:07;68.77;;;24.87;;
25079;SDS011;13071;48.868;9.996;2024-01-11T07:55:34;69.10;;;24.33;;
25079;SDS011;13071;48.868;9.996;2024-01-11T07:58:02;66.00;;;23.87;;
25079;SDS011;13071;48.868;9.996;2024-01-11T08:00:29;63.80;;;24.33;;
25079;SDS011;13071;48.868;9.996;2024-01-11T08:02:55;60.90;;;23.27;;
25079;SDS011;13071;48.868;9.996;2024-01-11T08:05:21;57.93;;;22.47;;
25079;SDS011;13071;48.868;9.996;2024-01-11T08:07:49;62.77;;;22.70;;
25079;SDS011;13071;48.868;9.996;2024-01-11T08:10:16;57.53;;;22.73;;
25079;SDS011;13071;48.868;9.996;2024-01-11T08:12:42;61.87;;;24.57;;
25079;SDS011;13071;48.868;9.996;2024-01-11T08:15:09;61.10;;;22.83;;
25079;SDS011;13071;48.868;9.996;2024-01-11T08:17:37;61.20;;;23.43;;
25079;SDS011;13071;48.868;9.996;2024-01-11T08:20:04;59.10;;;22.93;;
25079;SDS011;13071;48.868;9.996;2024-01-11T08:22:33;62.27;;;24.00;;
25079;SDS011;13071;48.868;9.996;2024-01-11T08:25:02;67.93;;;23.93;;
25079;SDS011;13071;48.868;9.996;2024-01-11T08:27:30;58.23;;;23.73;;
25079;SDS011;13071;48.868;9.996;2024-01-11T08:29:56;63.33;;;23.53;;
25079;SDS011;13071;48.868;9.996;2024-01-11T08:32:22;65.93;;;23.17;;
25079;SDS011;13071;48.868;9.996;2024-01-11T08:34:49;72.87;;;24.20;;
25079;SDS011;13071;48.868;9.996;2024-01-11T08:37:15;72.40;;;25.23;;
25079;SDS011;13071;48.868;9.996;2024-01-11T08:39:41;59.23;;;23.10;;
25079;SDS011;13071;48.868;9.996;2024-01-11T08:42:09;66.17;;;24.70;;
25079;SDS011;13071;48.868;9.996;2024-01-11T08:44:35;60.53;;;22.33;;
25079;SDS011;13071;48.868;9.996;2024-01-11T08:47:02;60.37;;;22.60;;
25079;SDS011;13071;48.868;9.996;2024-01-11T08:49:28;65.00;;;24.20;;
25079;SDS011;13071;48.868;9.996;2024-01-11T08:51:55;65.13;;;25.27;;
25079;SDS011;13071;48.868;9.996;2024-01-11T08:54:21;63.07;;;24.23;;
25079;SDS011;13071;48.868;9.996;2024-01-11T08:56:47;55.70;;;22.90;;
25079;SDS011;13071;48.868;9.996;2024-01-11T08:59:15;67.60;;;23.70;;
25079;SDS011;13071;48.868;9.996;2024-01-11T09:01:41;59.40;;;23.13;;
25079;SDS011;13071;48.868;9.996;2024-01-11T09:04:08;62.87;;;23.87;;
25079;SDS011;13071;48.868;9.996;2024-01-11T09:06:34;61.63;;;23.37;;
25079;SDS011;13071;48.868;9.996;2024-01-11T09:09:00;57.90;;;21.60;;
25079;SDS011;13071;48.868;9.996;2024-01-11T09:11:27;62.10;;;22.57;;
25079;SDS011;13071;48.868;9.996;2024-01-11T09:13:53;61.73;;;24.07;;
25079;SDS011;13071;48.868;9.996;2024-01-11T09:16:21;65.13;;;24.27;;
25079;SDS011;13071;48.868;9.996;2024-01-11T09:18:47;62.07;;;23.70;;
25079;SDS011;13071;48.868;9.996;2024-01-11T09:21:14;61.13;;;22.50;;
25079;SDS011;13071;48.868;9.996;2024-01-11T09:23:40;53.33;;;21.27;;
25079;SDS011;13071;48.868;9.996;2024-01-11T09:26:06;58.07;;;22.47;;
25079;SDS011;13071;48.868;9.996;2024-01-11T09:28:33;63.97;;;23.60;;
25079;SDS011;13071;48.868;9.996;2024-01-11T09:30:59;69.87;;;25.17;;
25079;SDS011;13071;48.868;9.996;2024-01-11T09:33:28;63.10;;;24.63;;
25079;SDS011;13071;48.868;9.996;2024-01-11T09:35:54;58.93;;;22.40;;
25079;SDS011;13071;48.868;9.996;2024-01-11T09:38:21;62.67;;;24.00;;
25079;SDS011;13071;48.868;9.996;2024-01-11T09:40:47;61.83;;;24.23;;
25079;SDS011;13071;48.868;9.996;2024-01-11T09:43:14;63.60;;;20.93;;
25079;SDS011;13071;48.868;9.996;2024-01-11T09:45:40;61.60;;;24.50;;
25079;SDS011;13071;48.868;9.996;2024-01-11T09:48:07;68.70;;;24.00;;
25079;SDS011;13071;48.868;9.996;2024-01-11T09:50:35;58.97;;;23.13;;
25079;SDS011;13071;48.868;9.996;2024-01-11T09:53:02;38.23;;;11.27;;
25079;SDS011;13071;48.868;9.996;2024-01-11T09:55:30;38.47;;;11.63;;
25079;SDS011;13071;48.868;9.996;2024-01-11T09:57:57;35.17;;;10.73;;
25079;SDS011;13071;48.868;9.996;2024-01-11T10:00:25;30.57;;;11.60;;
25079;SDS011;13071;48.868;9.996;2024-01-11T10:02:52;31.03;;;11.67;;
25079;SDS011;13071;48.868;9.996;2024-01-11T10:05:18;31.17;;;9.40;;
25079;SDS011;13071;48.868;9.996;2024-01-11T10:07:46;38.23;;;11.43;;
25079;SDS011;13071;48.868;9.996;2024-01-11T10:10:13;30.90;;;11.37;;
25079;SDS011;13071;48.868;9.996;2024-01-11T10:12:40;21.90;;;7.93;;
25079;SDS011;13071;48.868;9.996;2024-01-11T10:15:07;26.70;;;9.67;;
25079;SDS011;13071;48.868;9.996;2024-01-11T10:17:34;29.73;;;9.37;;
25079;SDS011;13071;48.868;9.996;2024-01-11T10:20:01;27.23;;;9.20;;
25079;SDS011;13071;48.868;9.996;2024-01-11T10:22:28;30.40;;;10.70;;
25079;SDS011;13071;48.868;9.996;2024-01-11T10:25:09;29.03;;;10.27;;
25079;SDS011;13071;48.868;9.996;2024-01-11T10:27:36;27.07;;;8.93;;
25079;SDS011;13071;48.868;9.996;2024-01-11T10:30:03;23.80;;;9.03;;
25079;SDS011;13071;48.868;9.996;2024-01-11T10:32:29;25.10;;;8.10;;
25079;SDS011;13071;48.868;9.996;2024-01-11T10:34:59;30.53;;;10.23;;
25079;SDS011;13071;48.868;9.996;2024-01-11T10:37:26;36.10;;;9.77;;
25079;SDS011;13071;48.868;9.996;2024-01-11T10:39:53;66.13;;;24.07;;
25079;SDS011;13071;48.868;9.996;2024-01-11T10:42:22;38.37;;;14.50;;
25079;SDS011;13071;48.868;9.996;2024-01-11T10:44:49;22.83;;;10.17;;
25079;SDS011;13071;48.868;9.996;2024-01-11T10:47:21;24.83;;;9.77;;
25079;SDS011;13071;48.868;9.996;2024-01-11T10:49:47;28.03;;;10.77;;
25079;SDS011;13071;48.868;9.996;2024-01-11T10:52:16;40.47;;;12.13;;
25079;SDS011;13071;48.868;9.996;2024-01-11T10:54:47;31.10;;;10.03;;
25079;SDS011;13071;48.868;9.996;2024-01-11T10:57:14;31.07;;;11.83;;
25079;SDS011;13071;48.868;9.996;2024-01-11T10:59:41;25.20;;;7.80;;
25079;SDS011;13071;48.868;9.996;2024-01-11T11:02:09;40.67;;;12.43;;
25079;SDS011;13071;48.868;9.996;2024-01-11T11:04:38;34.27;;;12.53;;
25079;SDS011;13071;48.868;9.996;2024-01-11T11:07:04;43.03;;;15.50;;
25079;SDS011;13071;48.868;9.996;2024-01-11T11:09:32;31.33;;;11.47;;
25079;SDS011;13071;48.868;9.996;2024-01-11T11:12:00;33.27;;;10.30;;
25079;SDS011;13071;48.868;9.996;2024-01-11T11:14:28;18.87;;;7.83;;
25079;SDS011;13071;48.868;9.996;2024-01-11T11:16:57;26.13;;;11.17;;
25079;SDS011;13071;48.868;9.996;2024-01-11T11:19:24;62.93;;;11.80;;
25079;SDS011;13071;48.868;9.996;2024-01-11T11:21:50;27.97;;;10.47;;
25079;SDS011;13071;48.868;9.996;2024-01-11T11:24:17;29.70;;;11.33;;
25079;SDS011;13071;48.868;9.996;2024-01-11T11:26:43;24.83;;;9.33;;
25079;SDS011;13071;48.868;9.996;2024-01-11T11:29:10;26.43;;;9.03;;
25079;SDS011;13071;48.868;9.996;2024-01-11T11:31:36;28.33;;;10.63;;
25079;SDS011;13071;48.868;9.996;2024-01-11T11:34:05;18.67;;;8.23;;
25079;SDS011;13071;48.868;9.996;2024-01-11T11:36:32;55.47;;;18.53;;
25079;SDS011;13071;48.868;9.996;2024-01-11T11:38:59;66.23;;;23.17;;
25079;SDS011;13071;48.868;9.996;2024-01-11T11:41:26;35.07;;;12.80;;
25079;SDS011;13071;48.868;9.996;2024-01-11T11:43:52;43.30;;;14.97;;
25079;SDS011;13071;48.868;9.996;2024-01-11T11:46:18;35.73;;;10.87;;
25079;SDS011;13071;48.868;9.996;2024-01-11T11:48:48;31.97;;;10.07;;
25079;SDS011;13071;48.868;9.996;2024-01-11T11:51:17;27.10;;;10.60;;
25079;SDS011;13071;48.868;9.996;2024-01-11T11:53:45;29.17;;;9.40;;
25079;SDS011;13071;48.868;9.996;2024-01-11T11:56:11;26.97;;;10.00;;
25079;SDS011;13071;48.868;9.996;2024-01-11T11:58:40;44.20;;;14.53;;
25079;SDS011;13071;48.868;9.996;2024-01-11T12:01:07;29.20;;;9.80;;
25079;SDS011;13071;48.868;9.996;2024-01-11T12:03:34;55.57;;;13.90;;
25079;SDS011;13071;48.868;9.996;2024-01-11T12:06:02;36.63;;;12.43;;
25079;SDS011;13071;48.868;9.996;2024-01-11T12:08:30;40.43;;;12.43;;
25079;SDS011;13071;48.868;9.996;2024-01-11T12:10:57;31.07;;;10.80;;
25079;SDS011;13071;48.868;9.996;2024-01-11T12:13:24;28.67;;;9.70;;
25079;SDS011;13071;48.868;9.996;2024-01-11T12:15:50;31.77;;;11.27;;
25079;SDS011;13071;48.868;9.996;2024-01-11T12:18:17;24.77;;;9.77;;
25079;SDS011;13071;48.868;9.996;2024-01-11T12:20:43;35.07;;;9.67;;
25079;SDS011;13071;48.868;9.996;2024-01-11T12:23:09;43.57;;;13.53;;
25079;SDS011;13071;48.868;9.996;2024-01-11T12:25:37;33.07;;;10.90;;
25079;SDS011;13071;48.868;9.996;2024-01-11T12:28:05;31.87;;;11.63;;
25079;SDS011;13071;48.868;9.996;2024-01-11T12:30:32;35.63;;;11.70;;
25079;SDS011;13071;48.868;9.996;2024-01-11T12:32:58;26.27;;;10.40;;
25079;SDS011;13071;48.868;9.996;2024-01-11T12:35:26;31.07;;;10.23;;
25079;SDS011;13071;48.868;9.996;2024-01-11T12:37:53;32.37;;;11.20;;
25079;SDS011;13071;48.868;9.996;2024-01-11T12:40:20;44.77;;;13.13;;
25079;SDS011;13071;48.868;9.996;2024-01-11T12:42:47;38.37;;;12.97;;
25079;SDS011;13071;48.868;9.996;2024-01-11T12:45:15;47.70;;;12.20;;
25079;SDS011;13071;48.868;9.996;2024-01-11T12:47:42;36.00;;;11.37;;
25079;SDS011;13071;48.868;9.996;2024-01-11T12:50:08;30.67;;;9.13;;
25079;SDS011;13071;48.868;9.996;2024-01-11T12:52:35;32.90;;;9.73;;
25079;SDS011;13071;48.868;9.996;2024-01-11T12:55:01;37.63;;;10.53;;
25079;SDS011;13071;48.868;9.996;2024-01-11T12:57:29;24.60;;;9.07;;
25079;SDS011;13071;48.868;9.996;2024-01-11T12:59:59;25.00;;;8.70;;
25079;SDS011;13071;48.868;9.996;2024-01-11T13:02:35;28.07;;;10.40;;
25079;SDS011;13071;48.868;9.996;2024-01-11T13:05:02;26.40;;;9.77;;
25079;SDS011;13071;48.868;9.996;2024-01-11T13:07:28;30.37;;;8.60;;
25079;SDS011;13071;48.868;9.996;2024-01-11T13:09:55;32.13;;;9.83;;
25079;SDS011;13071;48.868;9.996;2024-01-11T13:12:21;37.90;;;11.33;;
25079;SDS011;13071;48.868;9.996;2024-01-11T13:14:48;42.47;;;11.73;;
25079;SDS011;13071;48.868;9.996;2024-01-11T13:17:17;37.13;;;11.33;;
25079;SDS011;13071;48.868;9.996;2024-01-11T13:19:43;36.40;;;12.03;;
25079;SDS011;13071;48.868;9.996;2024-01-11T13:22:10;32.37;;;10.80;;
25079;SDS011;13071;48.868;9.996;2024-01-11T13:24:36;37.50;;;8.90;;
25079;SDS011;13071;48.868;9.996;2024-01-11T13:27:03;19.47;;;8.53;;
25079;SDS011;13071;48.868;9.996;2024-01-11T13:29:29;26.10;;;9.50;;
25079;SDS011;13071;48.868;9.996;2024-01-11T13:31:56;29.60;;;9.77;;
25079;SDS011;13071;48.868;9.996;2024-01-11T13:34:23;24.10;;;8.70;;
25079;SDS011;13071;48.868;9.996;2024-01-11T13:36:50;31.00;;;10.20;;
25079;SDS011;13071;48.868;9.996;2024-01-11T13:39:16;30.90;;;10.07;;
25079;SDS011;13071;48.868;9.996;2024-01-11T13:41:45;32.40;;;10.10;;
25079;SDS011;13071;48.868;9.996;2024-01-11T13:44:12;32.13;;;9.47;;
25079;SDS011;13071;48.868;9.996;2024-01-11T13:46:39;32.67;;;10.27;;
25079;SDS011;13071;48.868;9.996;2024-01-11T13:49:05;32.23;;;10.83;;
25079;SDS011;13071;48.868;9.996;2024-01-11T13:51:33;27.67;;;9.57;;
25079;SDS011;13071;48.868;9.996;2024-01-11T13:53:59;27.63;;;10.77;;
25079;SDS011;13071;48.868;9.996;2024-01-11T13:56:25;41.13;;;11.40;;
25079;SDS011;13071;48.868;9.996;2024-01-11T13:58:52;35.13;;;12.57;;
25079;SDS011;13071;48.868;9.996;2024-01-11T14:01:19;36.90;;;10.73;;
25079;SDS011;13071;48.868;9.996;2024-01-11T14:03:45;40.92;;;13.73;;
25079;SDS011;13071;48.868;9.996;2024-01-11T14:06:11;34.03;;;11.93;;
25079;SDS011;13071;48.868;9.996;2024-01-11T14:08:39;32.83;;;10.67;;
25079;SDS011;13071;48.868;9.996;2024-01-11T14:11:06;26.77;;;9.38;;
25079;SDS011;13071;48.868;9.996;2024-01-11T14:13:32;40.60;;;11.33;;
25079;SDS011;13071;48.868;9.996;2024-01-11T14:15:59;38.60;;;11.40;;
25079;SDS011;13071;48.868;9.996;2024-01-11T14:18:25;36.00;;;10.25;;
25079;SDS011;13071;48.868;9.996;2024-01-11T14:20:52;27.30;;;11.10;;